Time,TemperatureF,DewpointF,PressureIn,WindDirection,WindDirectionDegrees,WindSpeedMPH,WindSpeedGustMPH,Humidity,HourlyPrecipIn,Conditions,Clouds,dailyrainin,SoftwareType,DateUTC
2013-02-10 00:00:00,32.7,20.0,30.12,NE,45,0.0,0.0,59,0.00,CLR,CLR,0.00,WeatherDisplay:10.37,2013-02-10 05:00:00,
2013-02-10 00:01:00,32.7,20.0,30.12,NE,45,0.0,0.0,59,0.00,CLR,CLR,0.00,WeatherDisplay:10.37,2013-02-10 05:01:00,
2013-02-10 00:03:00,33.4,19.8,30.12,NE,45,0.0,0.0,57,0.00,CLR,CLR,0.00,WeatherDisplay:10.37,2013-02-10 05:03:00,
2013-02-10 00:08:00,34.5,20.0,30.13,NE,45,0.0,0.0,55,0.00,CLR,CLR,0.00,WeatherDisplay:10.37,2013-02-10 05:08:00,
2013-02-10 00:13:00,35.1,20.1,30.13,NE,45,0.0,0.0,54,0.00,CLR,CLR,0.00,WeatherDisplay:10.37,2013-02-10 05:13:00,
2013-02-10 00:18:00,34.5,20.0,30.13,ENE,68,0.0,0.0,55,0.00,CLR,CLR,0.00,WeatherDisplay:10.37,2013-02-10 05:18:00,
2013-02-10 00:23:00,34.0,19.9,30.12,ENE,68,0.0,0.0,56,0.00,CLR,CLR,0.00,WeatherDisplay:10.37,2013-02-10 05:23:00,
2013-02-10 00:28:00,33.1,19.5,30.13,ENE,68,0.0,0.0,57,0.00,CLR,CLR,0.00,WeatherDisplay:10.37,2013-02-10 05:28:00,
2013-02-10 00:33:00,32.0,18.9,30.12,ENE,68,0.0,0.0,58,0.00,CLR,CLR,0.00,WeatherDisplay:10.37,2013-02-10 05:33:00,
2013-02-10 00:38:00,31.6,18.9,30.13,ENE,68,0.0,0.0,59,0.00,CLR,CLR,0.00,WeatherDisplay:10.37,2013-02-10 05:38:00,
2013-02-10 00:44:00,31.3,19.0,30.12,ENE,68,0.0,0.0,60,0.00,CLR,CLR,0.00,WeatherDisplay:10.37,2013-02-10 05:44:00,
2013-02-10 00:49:00,31.1,19.2,30.12,SSE,158,0.0,0.0,61,0.00,CLR,CLR,0.00,WeatherDisplay:10.37,2013-02-10 05:49:00,
2013-02-10 00:54:00,31.1,19.2,30.12,SSE,158,0.0,0.0,61,0.00,CLR,CLR,0.00,WeatherDisplay:10.37,2013-02-10 05:54:00,
2013-02-10 00:59:00,30.9,19.4,30.12,SSE,158,0.0,0.0,62,0.00,CLR,CLR,0.00,WeatherDisplay:10.37,2013-02-10 05:59:00,
2013-02-10 01:04:00,30.4,19.3,30.13,SSE,158,0.0,0.0,63,0.00,CLR,CLR,0.00,WeatherDisplay:10.37,2013-02-10 06:04:00,
2013-02-10 01:09:00,29.7,19.0,30.13,SSE,158,0.0,0.0,64,0.00,CLR,CLR,0.00,WeatherDisplay:10.37,2013-02-10 06:09:00,
2013-02-10 01:14:00,28.9,18.3,30.13,SSE,158,0.0,0.0,64,0.00,CLR,CLR,0.00,WeatherDisplay:10.37,2013-02-10 06:14:00,
2013-02-10 01:19:00,28.8,18.1,30.13,SSE,158,0.0,0.0,64,0.00,CLR,CLR,0.00,WeatherDisplay:10.37,2013-02-10 06:19:00,
2013-02-10 01:25:00,28.4,18.1,30.13,SSE,158,0.0,0.0,65,0.00,CLR,CLR,0.00,WeatherDisplay:10.37,2013-02-10 06:25:00,
2013-02-10 01:30:00,28.2,18.0,30.13,SSE,158,0.0,0.0,65,0.00,CLR,CLR,0.00,WeatherDisplay:10.37,2013-02-10 06:30:00,
2013-02-10 01:35:00,28.4,18.1,30.13,SSE,158,0.0,0.0,65,0.00,CLR,CLR,0.00,WeatherDisplay:10.37,2013-02-10 06:35:00,
2013-02-10 01:40:00,28.4,18.1,30.14,SSE,158,0.0,0.0,65,0.00,CLR,CLR,0.00,WeatherDisplay:10.37,2013-02-10 06:40:00,
2013-02-10 01:45:00,28.4,18.1,30.14,SSE,158,0.0,0.0,65,0.00,CLR,CLR,0.00,WeatherDisplay:10.37,2013-02-10 06:45:00,
2013-02-10 01:50:00,28.4,18.1,30.14,SSE,158,0.0,0.0,65,0.00,CLR,CLR,0.00,WeatherDisplay:10.37,2013-02-10 06:50:00,
2013-02-10 01:56:00,28.6,18.3,30.14,SSE,158,0.0,0.0,65,0.00,CLR,CLR,0.00,WeatherDisplay:10.37,2013-02-10 06:56:00,
2013-02-10 02:01:00,28.8,18.5,30.14,SSE,158,0.0,0.0,65,0.00,CLR,CLR,0.00,WeatherDisplay:10.37,2013-02-10 07:01:00,
2013-02-10 02:06:00,28.8,18.5,30.14,SSE,158,0.0,0.0,65,0.00,CLR,CLR,0.00,WeatherDisplay:10.37,2013-02-10 07:06:00,
2013-02-10 02:11:00,29.3,18.6,30.14,ENE,68,0.0,0.0,64,0.00,CLR,CLR,0.00,WeatherDisplay:10.37,2013-02-10 07:11:00,
2013-02-10 02:16:00,29.3,18.6,30.14,ENE,68,0.0,0.0,64,0.00,CLR,CLR,0.00,WeatherDisplay:10.37,2013-02-10 07:16:00,
2013-02-10 02:21:00,29.1,19.2,30.14,ENE,68,0.0,0.0,66,0.00,CLR,CLR,0.00,WeatherDisplay:10.37,2013-02-10 07:21:00,
2013-02-10 02:26:00,28.9,19.0,30.15,ENE,68,0.0,0.0,66,0.00,CLR,CLR,0.00,WeatherDisplay:10.37,2013-02-10 07:26:00,
2013-02-10 02:31:00,28.6,19.0,30.15,ENE,68,0.0,0.0,67,0.00,CLR,CLR,0.00,WeatherDisplay:10.37,2013-02-10 07:31:00,
2013-02-10 02:36:00,28.0,18.5,30.15,ENE,68,0.0,0.0,67,0.00,CLR,CLR,0.00,WeatherDisplay:10.37,2013-02-10 07:36:00,
2013-02-10 02:41:00,27.7,18.5,30.15,ENE,68,0.0,0.0,68,0.00,CLR,CLR,0.00,WeatherDisplay:10.37,2013-02-10 07:41:00,
2013-02-10 02:47:00,27.5,18.7,30.15,ENE,68,0.0,0.0,69,0.00,CLR,CLR,0.00,WeatherDisplay:10.37,2013-02-10 07:47:00,
2013-02-10 02:52:00,27.3,18.5,30.15,ENE,68,0.0,0.0,69,0.00,CLR,CLR,0.00,WeatherDisplay:10.37,2013-02-10 07:52:00,
2013-02-10 02:57:00,27.1,18.3,30.15,ENE,68,0.0,0.0,69,0.00,CLR,CLR,0.00,WeatherDisplay:10.37,2013-02-10 07:57:00,
2013-02-10 03:02:00,26.8,18.3,30.15,ENE,68,0.0,0.0,70,0.00,CLR,CLR,0.00,WeatherDisplay:10.37,2013-02-10 08:02:00,
2013-02-10 03:07:00,26.6,18.5,30.15,ENE,68,0.0,0.0,71,0.00,CLR,CLR,0.00,WeatherDisplay:10.37,2013-02-10 08:07:00,
2013-02-10 03:12:00,26.4,18.0,30.15,ENE,68,0.0,0.0,70,0.00,CLR,CLR,0.00,WeatherDisplay:10.37,2013-02-10 08:12:00,
2013-02-10 03:17:00,26.4,18.9,30.15,ENE,68,0.0,0.0,73,0.00,CLR,CLR,0.00,WeatherDisplay:10.37,2013-02-10 08:17:00,
2013-02-10 03:22:00,26.8,19.3,30.15,ENE,68,0.0,0.0,73,0.00,CLR,CLR,0.00,WeatherDisplay:10.37,2013-02-10 08:22:00,
2013-02-10 03:28:00,26.8,18.6,30.15,ESE,112,0.0,0.0,71,0.00,CLR,CLR,0.00,WeatherDisplay:10.37,2013-02-10 08:28:00,
2013-02-10 03:33:00,27.0,19.5,30.15,ESE,112,0.0,0.0,73,0.00,CLR,CLR,0.00,WeatherDisplay:10.37,2013-02-10 08:33:00,
2013-02-10 03:38:00,27.0,19.5,30.15,SSE,158,0.0,0.0,73,0.00,CLR,CLR,0.00,WeatherDisplay:10.37,2013-02-10 08:38:00,
2013-02-10 03:43:00,27.0,19.8,30.15,SSW,202,0.0,0.0,74,0.00,CLR,CLR,0.00,WeatherDisplay:10.37,2013-02-10 08:43:00,
2013-02-10 03:48:00,27.0,19.5,30.15,SSW,202,0.0,0.0,73,0.00,CLR,CLR,0.00,WeatherDisplay:10.37,2013-02-10 08:48:00,
2013-02-10 03:53:00,26.8,19.6,30.15,SSW,202,0.0,0.0,74,0.00,CLR,CLR,0.00,WeatherDisplay:10.37,2013-02-10 08:53:00,
2013-02-10 03:58:00,27.0,19.8,30.15,SSW,202,0.0,0.0,74,0.00,CLR,CLR,0.00,WeatherDisplay:10.37,2013-02-10 08:58:00,
2013-02-10 04:03:00,26.8,19.6,30.15,SE,135,0.0,0.0,74,0.00,CLR,CLR,0.00,WeatherDisplay:10.37,2013-02-10 09:03:00,
2013-02-10 04:08:00,26.8,19.3,30.15,SE,135,0.0,0.0,73,0.00,CLR,CLR,0.00,WeatherDisplay:10.37,2013-02-10 09:08:00,
2013-02-10 04:13:00,26.8,19.3,30.15,SE,135,0.0,0.0,73,0.00,CLR,CLR,0.00,WeatherDisplay:10.37,2013-02-10 09:13:00,
2013-02-10 04:18:00,27.0,19.5,30.15,SE,135,0.0,0.0,73,0.00,CLR,CLR,0.00,WeatherDisplay:10.37,2013-02-10 09:18:00,
2013-02-10 04:23:00,27.0,19.8,30.15,SE,135,0.0,0.0,74,0.00,CLR,CLR,0.00,WeatherDisplay:10.37,2013-02-10 09:23:00,
2013-02-10 04:28:00,27.1,19.6,30.15,SE,135,0.0,0.0,73,0.00,CLR,CLR,0.00,WeatherDisplay:10.37,2013-02-10 09:28:00,
2013-02-10 04:33:00,27.1,19.6,30.15,SE,135,0.0,0.0,73,0.00,CLR,CLR,0.00,WeatherDisplay:10.37,2013-02-10 09:33:00,
2013-02-10 04:38:00,27.3,19.8,30.15,East,90,0.0,0.0,73,0.00,CLR,CLR,0.00,WeatherDisplay:10.37,2013-02-10 09:38:00,
2013-02-10 04:43:00,27.7,20.2,30.15,ENE,68,0.0,0.0,73,0.00,CLR,CLR,0.00,WeatherDisplay:10.37,2013-02-10 09:43:00,
2013-02-10 04:48:00,27.9,20.0,30.16,ENE,68,0.0,0.0,72,0.00,CLR,CLR,0.00,WeatherDisplay:10.37,2013-02-10 09:48:00,
2013-02-10 04:53:00,28.0,20.5,30.15,ENE,68,0.0,0.0,73,0.00,CLR,CLR,0.00,WeatherDisplay:10.37,2013-02-10 09:53:00,
2013-02-10 04:58:00,28.0,20.5,30.15,ENE,68,0.0,0.0,73,0.00,CLR,CLR,0.00,WeatherDisplay:10.37,2013-02-10 09:58:00,
2013-02-10 05:04:00,28.0,19.8,30.16,ENE,68,0.0,0.0,71,0.00,CLR,CLR,0.00,WeatherDisplay:10.37,2013-02-10 10:04:00,
2013-02-10 05:09:00,28.0,20.2,30.15,NE,45,0.0,0.0,72,0.00,CLR,CLR,0.00,WeatherDisplay:10.37,2013-02-10 10:09:00,
2013-02-10 05:14:00,27.9,19.7,30.15,NE,45,0.0,0.0,71,0.00,CLR,CLR,0.00,WeatherDisplay:10.37,2013-02-10 10:14:00,
2013-02-10 05:19:00,27.9,19.7,30.15,ENE,68,0.0,0.0,71,0.00,CLR,CLR,0.00,WeatherDisplay:10.37,2013-02-10 10:19:00,
2013-02-10 05:24:00,28.0,19.2,30.15,ENE,68,0.0,0.0,69,0.00,CLR,CLR,0.00,WeatherDisplay:10.37,2013-02-10 10:24:00,
2013-02-10 05:29:00,28.0,19.2,30.15,ENE,68,0.0,0.0,69,0.00,CLR,CLR,0.00,WeatherDisplay:10.37,2013-02-10 10:29:00,
2013-02-10 05:34:00,28.0,19.2,30.15,ENE,68,0.0,0.0,69,0.00,CLR,CLR,0.00,WeatherDisplay:10.37,2013-02-10 10:34:00,
2013-02-10 05:39:00,28.2,19.0,30.16,ENE,68,0.0,0.0,68,0.00,CLR,CLR,0.00,WeatherDisplay:10.37,2013-02-10 10:39:00,
2013-02-10 05:45:00,28.6,19.0,30.16,ENE,68,0.0,0.0,67,0.00,CLR,CLR,0.00,WeatherDisplay:10.37,2013-02-10 10:45:00,
2013-02-10 05:50:00,28.8,19.2,30.16,ENE,68,0.0,0.0,67,0.00,CLR,CLR,0.00,WeatherDisplay:10.37,2013-02-10 10:50:00,
2013-02-10 05:55:00,28.9,19.3,30.16,ENE,68,0.0,0.0,67,0.00,CLR,CLR,0.00,WeatherDisplay:10.37,2013-02-10 10:55:00,
2013-02-10 06:00:00,28.9,19.7,30.16,ENE,68,0.0,0.0,68,0.00,CLR,CLR,0.00,WeatherDisplay:10.37,2013-02-10 11:00:00,
2013-02-10 06:05:00,28.9,19.7,30.16,ENE,68,0.0,0.0,68,0.00,CLR,CLR,0.00,WeatherDisplay:10.37,2013-02-10 11:05:00,
2013-02-10 06:10:00,28.9,19.7,30.16,ENE,68,0.0,0.0,68,0.00,CLR,CLR,0.00,WeatherDisplay:10.37,2013-02-10 11:10:00,
2013-02-10 06:15:00,27.7,19.5,30.17,ENE,68,0.0,0.0,71,0.00,CLR,CLR,0.00,WeatherDisplay:10.37,2013-02-10 11:15:00,
2013-02-10 06:20:00,27.7,19.5,30.17,ENE,68,0.0,0.0,71,0.00,CLR,CLR,0.00,WeatherDisplay:10.37,2013-02-10 11:20:00,
2013-02-10 06:25:00,27.7,19.5,30.17,ENE,68,0.0,0.0,71,0.00,CLR,CLR,0.00,WeatherDisplay:10.37,2013-02-10 11:25:00,
2013-02-10 06:31:00,27.9,19.3,30.17,ENE,68,0.0,0.0,70,0.00,CLR,CLR,0.00,WeatherDisplay:10.37,2013-02-10 11:31:00,
2013-02-10 06:36:00,28.0,19.5,30.17,ENE,68,0.0,0.0,70,0.00,CLR,CLR,0.00,WeatherDisplay:10.37,2013-02-10 11:36:00,
2013-02-10 06:41:00,28.0,19.5,30.17,ENE,68,0.0,0.0,70,0.00,CLR,CLR,0.00,WeatherDisplay:10.37,2013-02-10 11:41:00,
2013-02-10 06:46:00,28.0,19.5,30.18,East,90,0.0,0.0,70,0.00,CLR,CLR,0.00,WeatherDisplay:10.37,2013-02-10 11:46:00,
2013-02-10 06:51:00,28.2,19.7,30.18,ESE,112,0.0,0.0,70,0.00,CLR,CLR,0.00,WeatherDisplay:10.37,2013-02-10 11:51:00,
2013-02-10 06:56:00,28.6,20.0,30.18,SE,135,0.0,0.0,70,0.00,CLR,CLR,0.00,WeatherDisplay:10.37,2013-02-10 11:56:00,
2013-02-10 07:01:00,28.8,20.2,30.18,SE,135,0.0,0.0,70,0.00,CLR,CLR,0.00,WeatherDisplay:10.37,2013-02-10 12:01:00,
2013-02-10 07:06:00,28.8,20.9,30.19,SE,135,0.0,0.0,72,0.00,CLR,CLR,0.00,WeatherDisplay:10.37,2013-02-10 12:06:00,
2013-02-10 07:11:00,28.6,21.0,30.19,SE,135,0.0,0.0,73,0.00,CLR,CLR,0.00,WeatherDisplay:10.37,2013-02-10 12:11:00,
2013-02-10 07:16:00,28.4,20.8,30.20,SE,135,0.0,0.0,73,0.00,CLR,CLR,0.00,WeatherDisplay:10.37,2013-02-10 12:16:00,
2013-02-10 07:21:00,28.4,20.5,30.20,SE,135,0.0,0.0,72,0.00,CLR,CLR,0.00,WeatherDisplay:10.37,2013-02-10 12:21:00,
2013-02-10 07:27:00,28.2,21.0,30.20,SE,135,0.0,0.0,74,0.00,CLR,CLR,0.00,WeatherDisplay:10.37,2013-02-10 12:27:00,
2013-02-10 07:32:00,28.2,20.7,30.20,SE,135,0.0,0.0,73,0.00,CLR,CLR,0.00,WeatherDisplay:10.37,2013-02-10 12:32:00,
2013-02-10 07:37:00,28.4,21.2,30.20,SE,135,0.0,0.0,74,0.00,CLR,CLR,0.00,WeatherDisplay:10.37,2013-02-10 12:37:00,
2013-02-10 07:42:00,28.8,21.2,30.20,SE,135,0.0,0.0,73,0.00,CLR,CLR,0.00,WeatherDisplay:10.37,2013-02-10 12:42:00,
2013-02-10 07:47:00,28.8,21.5,30.21,SW,225,0.0,0.0,74,0.00,CLR,CLR,0.00,WeatherDisplay:10.37,2013-02-10 12:47:00,
2013-02-10 07:52:00,28.9,21.0,30.21,SW,225,0.0,0.0,72,0.00,CLR,CLR,0.00,WeatherDisplay:10.37,2013-02-10 12:52:00,
2013-02-10 07:57:00,29.1,21.2,30.21,SW,225,0.0,0.0,72,0.00,CLR,CLR,0.00,WeatherDisplay:10.37,2013-02-10 12:57:00,
2013-02-10 08:03:00,29.5,21.2,30.21,SW,225,0.0,0.0,71,0.00,CLR,CLR,0.00,WeatherDisplay:10.37,2013-02-10 13:03:00,
2013-02-10 08:08:00,29.8,22.2,30.21,SW,225,0.0,0.0,73,0.00,CLR,CLR,0.00,WeatherDisplay:10.37,2013-02-10 13:08:00,
2013-02-10 08:13:00,29.8,22.2,30.21,SW,225,0.0,0.0,73,0.00,CLR,CLR,0.00,WeatherDisplay:10.37,2013-02-10 13:13:00,
2013-02-10 08:18:00,30.0,22.7,30.21,SW,225,0.0,0.0,74,0.00,CLR,CLR,0.00,WeatherDisplay:10.37,2013-02-10 13:18:00,
2013-02-10 08:23:00,30.7,23.1,30.21,SW,225,0.0,0.0,73,0.00,CLR,CLR,0.00,WeatherDisplay:10.37,2013-02-10 13:23:00,
2013-02-10 08:28:00,31.1,23.5,30.21,SW,225,0.0,0.0,73,0.00,CLR,CLR,0.00,WeatherDisplay:10.37,2013-02-10 13:28:00,
2013-02-10 08:34:00,31.6,23.6,30.21,ENE,68,0.0,0.0,72,0.00,CLR,CLR,0.00,WeatherDisplay:10.37,2013-02-10 13:34:00,
2013-02-10 08:39:00,32.2,24.2,30.21,ENE,68,0.0,0.0,72,0.00,CLR,CLR,0.00,WeatherDisplay:10.37,2013-02-10 13:39:00,
2013-02-10 08:44:00,32.2,24.2,30.21,NE,45,0.0,0.0,72,0.00,CLR,CLR,0.00,WeatherDisplay:10.37,2013-02-10 13:44:00,
2013-02-10 08:49:00,32.2,24.5,30.21,NE,45,0.0,0.0,73,0.00,CLR,CLR,0.00,WeatherDisplay:10.37,2013-02-10 13:49:00,
2013-02-10 08:54:00,32.5,24.8,30.21,NE,45,0.0,0.0,73,0.00,CLR,CLR,0.00,WeatherDisplay:10.37,2013-02-10 13:54:00,
2013-02-10 08:59:00,33.1,25.4,30.21,NE,45,0.0,0.0,73,0.00,CLR,CLR,0.00,WeatherDisplay:10.37,2013-02-10 13:59:00,
2013-02-10 09:04:00,33.8,25.7,30.21,NE,45,0.0,0.0,72,0.00,CLR,CLR,0.00,WeatherDisplay:10.37,2013-02-10 14:04:00,
2013-02-10 09:09:00,34.5,26.1,30.21,ENE,68,0.0,0.0,71,0.00,CLR,CLR,0.00,WeatherDisplay:10.37,2013-02-10 14:09:00,
2013-02-10 09:14:00,34.9,26.4,30.21,ENE,68,0.0,0.0,71,0.00,CLR,CLR,0.00,WeatherDisplay:10.37,2013-02-10 14:14:00,
2013-02-10 09:19:00,35.2,26.8,30.21,ENE,68,0.0,0.0,71,0.00,CLR,CLR,0.00,WeatherDisplay:10.37,2013-02-10 14:19:00,
2013-02-10 09:25:00,35.2,26.1,30.21,SE,135,0.0,0.0,69,0.00,CLR,CLR,0.00,WeatherDisplay:10.37,2013-02-10 14:25:00,
2013-02-10 09:30:00,35.2,26.1,30.21,SSE,158,0.0,0.0,69,0.00,CLR,CLR,0.00,WeatherDisplay:10.37,2013-02-10 14:30:00,
2013-02-10 09:35:00,35.2,26.4,30.22,ENE,68,0.0,0.0,70,0.00,CLR,CLR,0.00,WeatherDisplay:10.37,2013-02-10 14:35:00,
2013-02-10 09:40:00,35.2,26.1,30.22,ENE,68,0.0,0.0,69,0.00,CLR,CLR,0.00,WeatherDisplay:10.37,2013-02-10 14:40:00,
2013-02-10 09:45:00,36.1,25.9,30.22,East,90,0.0,0.0,66,0.00,CLR,CLR,0.00,WeatherDisplay:10.37,2013-02-10 14:45:00,
2013-02-10 09:50:00,36.7,26.0,30.22,ESE,112,0.0,0.0,65,0.00,CLR,CLR,0.00,WeatherDisplay:10.37,2013-02-10 14:50:00,
2013-02-10 09:55:00,37.2,25.8,30.22,SE,135,0.0,0.0,63,0.00,CLR,CLR,0.00,WeatherDisplay:10.37,2013-02-10 14:55:00,
2013-02-10 10:00:00,37.6,25.7,30.22,West,270,0.0,0.0,62,0.00,CLR,CLR,0.00,WeatherDisplay:10.37,2013-02-10 15:00:00,
2013-02-10 10:05:00,38.1,25.4,30.22,NE,45,0.0,0.0,60,0.00,CLR,CLR,0.00,WeatherDisplay:10.37,2013-02-10 15:05:00,
2013-02-10 10:12:00,38.8,25.7,30.22,WSW,248,0.0,0.0,59,0.00,CLR,CLR,0.00,WeatherDisplay:10.37,2013-02-10 15:12:00,
2013-02-10 10:17:00,39.4,25.8,30.22,ENE,68,0.0,0.0,58,0.00,CLR,CLR,0.00,WeatherDisplay:10.37,2013-02-10 15:17:00,
2013-02-10 10:22:00,40.6,26.2,30.21,WNW,292,0.0,0.0,56,0.00,CLR,CLR,0.00,WeatherDisplay:10.37,2013-02-10 15:22:00,
2013-02-10 10:27:00,40.8,25.4,30.21,SE,135,0.0,0.0,54,0.00,CLR,CLR,0.00,WeatherDisplay:10.37,2013-02-10 15:27:00,
2013-02-10 10:32:00,40.8,25.4,30.21,SSE,158,0.0,0.0,54,0.00,CLR,CLR,0.00,WeatherDisplay:10.37,2013-02-10 15:32:00,
2013-02-10 10:37:00,41.2,25.3,30.21,ESE,112,0.0,0.0,53,0.00,CLR,CLR,0.00,WeatherDisplay:10.37,2013-02-10 15:37:00,
2013-02-10 10:42:00,41.2,25.3,30.20,West,270,0.0,0.0,53,0.00,CLR,CLR,0.00,WeatherDisplay:10.37,2013-02-10 15:42:00,
2013-02-10 10:48:00,41.7,25.8,30.19,ENE,68,0.0,0.0,53,0.00,CLR,CLR,0.00,WeatherDisplay:10.37,2013-02-10 15:48:00,
2013-02-10 10:53:00,41.9,25.5,30.21,SSE,158,0.0,0.0,52,0.00,CLR,CLR,0.00,WeatherDisplay:10.37,2013-02-10 15:53:00,
2013-02-10 10:58:00,42.1,25.7,30.21,SW,225,0.0,2.3,52,0.00,CLR,CLR,0.00,WeatherDisplay:10.37,2013-02-10 15:58:00,
2013-02-10 11:03:00,42.4,26.0,30.21,SW,225,0.0,0.0,52,0.00,CLR,CLR,0.00,WeatherDisplay:10.37,2013-02-10 16:03:00,
2013-02-10 11:08:00,43.0,26.1,30.20,SSW,202,0.0,0.0,51,0.00,CLR,CLR,0.00,WeatherDisplay:10.37,2013-02-10 16:08:00,
2013-02-10 11:13:00,43.3,26.4,30.20,WSW,248,0.0,0.0,51,0.00,CLR,CLR,0.00,WeatherDisplay:10.37,2013-02-10 16:13:00,
2013-02-10 11:19:00,43.5,26.1,30.20,SE,135,1.5,1.5,50,0.00,CLR,CLR,0.00,WeatherDisplay:10.37,2013-02-10 16:19:00,
2013-02-10 11:24:00,43.5,26.1,30.20,SE,135,1.5,1.5,50,0.00,CLR,CLR,0.00,WeatherDisplay:10.37,2013-02-10 16:24:00,
2013-02-10 11:30:00,44.2,25.8,30.20,WSW,248,0.0,0.0,48,0.00,CLR,CLR,0.00,WeatherDisplay:10.37,2013-02-10 16:30:00,
2013-02-10 11:35:00,44.2,25.8,30.20,WSW,248,0.0,0.0,48,0.00,CLR,CLR,0.00,WeatherDisplay:10.37,2013-02-10 16:35:00,
2013-02-10 11:40:00,44.2,25.8,30.20,WSW,248,0.0,0.0,48,0.00,CLR,CLR,0.00,WeatherDisplay:10.37,2013-02-10 16:40:00,
2013-02-10 11:45:00,45.9,26.7,30.18,SSW,202,0.0,0.0,47,0.00,CLR,CLR,0.00,WeatherDisplay:10.37,2013-02-10 16:45:00,
2013-02-10 11:50:00,46.0,25.3,30.18,NNE,22,3.8,3.8,44,0.00,CLR,CLR,0.00,WeatherDisplay:10.37,2013-02-10 16:50:00,
2013-02-10 11:55:00,46.9,26.1,30.18,NNE,22,0.0,0.0,44,0.00,CLR,CLR,0.00,WeatherDisplay:10.37,2013-02-10 16:55:00,
2013-02-10 12:00:00,47.1,25.2,30.17,ESE,112,0.0,0.0,42,0.00,CLR,CLR,0.00,WeatherDisplay:10.37,2013-02-10 17:00:00,
2013-02-10 12:06:00,46.9,25.6,30.17,WSW,248,0.0,0.0,43,0.00,CLR,CLR,0.00,WeatherDisplay:10.37,2013-02-10 17:06:00,
2013-02-10 12:11:00,47.3,26.5,30.16,NE,45,0.0,0.0,44,0.00,CLR,CLR,0.00,WeatherDisplay:10.37,2013-02-10 17:11:00,
2013-02-10 12:16:00,47.7,25.7,30.16,SSE,158,0.0,0.0,42,0.00,CLR,CLR,0.00,WeatherDisplay:10.37,2013-02-10 17:16:00,
2013-02-10 12:21:00,47.3,24.8,30.15,SSW,202,1.7,1.7,41,0.00,CLR,CLR,0.00,WeatherDisplay:10.37,2013-02-10 17:21:00,
2013-02-10 12:26:00,47.8,25.8,30.15,NE,45,0.0,0.0,42,0.00,CLR,CLR,0.00,WeatherDisplay:10.37,2013-02-10 17:26:00,
2013-02-10 12:32:00,47.8,24.7,30.15,NNE,22,2.6,2.6,40,0.00,CLR,CLR,0.00,WeatherDisplay:10.37,2013-02-10 17:32:00,
2013-02-10 12:37:00,47.7,24.5,30.15,ENE,68,0.0,0.0,40,0.00,CLR,CLR,0.00,WeatherDisplay:10.37,2013-02-10 17:37:00,
2013-02-10 12:42:00,47.8,24.7,30.15,East,90,3.3,3.5,40,0.00,CLR,CLR,0.00,WeatherDisplay:10.37,2013-02-10 17:42:00,
2013-02-10 12:47:00,48.0,26.0,30.14,NNW,338,0.0,0.0,42,0.00,CLR,CLR,0.00,WeatherDisplay:10.37,2013-02-10 17:47:00,
2013-02-10 12:53:00,48.9,25.0,30.14,NE,45,0.0,0.0,39,0.00,CLR,CLR,0.00,WeatherDisplay:10.37,2013-02-10 17:53:00,
2013-02-10 12:58:00,48.9,24.4,30.14,NNE,22,0.4,0.4,38,0.00,CLR,CLR,0.00,WeatherDisplay:10.37,2013-02-10 17:58:00,
2013-02-10 13:03:00,48.9,24.4,30.14,SSE,158,0.0,0.0,38,0.00,CLR,CLR,0.00,WeatherDisplay:10.37,2013-02-10 18:03:00,
2013-02-10 13:08:00,48.0,24.2,30.14,South,180,6.1,6.1,39,0.00,CLR,CLR,0.00,WeatherDisplay:10.37,2013-02-10 18:08:00,
2013-02-10 13:13:00,48.0,24.8,30.14,WSW,248,1.1,1.2,40,0.00,CLR,CLR,0.00,WeatherDisplay:10.37,2013-02-10 18:13:00,
2013-02-10 13:18:00,49.6,26.3,30.13,SSE,158,0.0,0.0,40,0.00,CLR,CLR,0.00,WeatherDisplay:10.37,2013-02-10 18:18:00,
2013-02-10 13:23:00,49.8,25.8,30.13,SE,135,3.5,3.5,39,0.00,CLR,CLR,0.00,WeatherDisplay:10.37,2013-02-10 18:23:00,
2013-02-10 13:29:00,49.3,26.0,30.13,North,0,1.7,1.7,40,0.00,CLR,CLR,0.00,WeatherDisplay:10.37,2013-02-10 18:29:00,
2013-02-10 13:34:00,48.4,25.7,30.13,ESE,112,5.2,5.2,41,0.00,CLR,CLR,0.00,WeatherDisplay:10.37,2013-02-10 18:34:00,
2013-02-10 13:39:00,48.0,25.4,30.13,SW,225,0.0,0.0,41,0.00,CLR,CLR,0.00,WeatherDisplay:10.37,2013-02-10 18:39:00,
2013-02-10 13:44:00,48.4,25.1,30.12,WSW,248,3.5,3.5,40,0.00,CLR,CLR,0.00,WeatherDisplay:10.37,2013-02-10 18:44:00,
2013-02-10 13:49:00,48.4,23.9,30.11,SSW,202,2.4,2.4,38,0.00,CLR,CLR,0.00,WeatherDisplay:10.37,2013-02-10 18:49:00,
2013-02-10 13:54:00,48.4,24.5,30.11,WSW,248,0.6,1.2,39,0.00,CLR,CLR,0.00,WeatherDisplay:10.37,2013-02-10 18:54:00,
2013-02-10 13:59:00,48.9,25.6,30.11,South,180,0.0,0.0,40,0.00,CLR,CLR,0.00,WeatherDisplay:10.37,2013-02-10 18:59:00,
2013-02-10 14:04:00,49.6,26.3,30.10,SSW,202,0.0,0.0,40,0.00,CLR,CLR,0.00,WeatherDisplay:10.37,2013-02-10 19:04:00,
2013-02-10 14:09:00,50.4,25.0,30.09,ENE,68,0.0,0.0,37,0.00,CLR,CLR,0.00,WeatherDisplay:10.37,2013-02-10 19:09:00,
2013-02-10 14:14:00,50.2,24.9,30.08,WSW,248,4.9,4.9,37,0.00,CLR,CLR,0.00,WeatherDisplay:10.37,2013-02-10 19:14:00,
2013-02-10 14:19:00,50.7,24.7,30.08,SW,225,3.8,3.8,36,0.00,CLR,CLR,0.00,WeatherDisplay:10.37,2013-02-10 19:19:00,
2013-02-10 14:24:00,51.1,27.0,30.08,SSE,158,0.0,1.2,39,0.00,CLR,CLR,0.00,WeatherDisplay:10.37,2013-02-10 19:24:00,
2013-02-10 14:30:00,51.4,27.3,30.08,WSW,248,2.4,2.4,39,0.00,CLR,CLR,0.00,WeatherDisplay:10.37,2013-02-10 19:30:00,
2013-02-10 14:35:00,51.6,28.7,30.08,WSW,248,1.1,1.2,41,0.00,CLR,CLR,0.00,WeatherDisplay:10.37,2013-02-10 19:35:00,
2013-02-10 14:40:00,51.6,25.5,30.08,SW,225,6.1,6.1,36,0.00,CLR,CLR,0.00,WeatherDisplay:10.37,2013-02-10 19:40:00,
2013-02-10 14:45:00,51.4,25.3,30.08,WSW,248,4.4,4.6,36,0.00,CLR,CLR,0.00,WeatherDisplay:10.37,2013-02-10 19:45:00,
2013-02-10 14:50:00,50.7,25.4,30.08,NNW,338,0.0,4.6,37,0.00,CLR,CLR,0.00,WeatherDisplay:10.37,2013-02-10 19:50:00,
2013-02-10 14:55:00,51.6,26.2,30.08,North,0,0.8,1.2,37,0.00,CLR,CLR,0.00,WeatherDisplay:10.37,2013-02-10 19:55:00,
2013-02-10 15:00:00,52.0,26.5,30.08,SW,225,6.8,6.9,37,0.00,CLR,CLR,0.00,WeatherDisplay:10.37,2013-02-10 20:00:00,
2013-02-10 15:06:00,51.6,26.2,30.08,SW,225,6.1,6.1,37,0.00,CLR,CLR,0.00,WeatherDisplay:10.37,2013-02-10 20:06:00,
2013-02-10 15:11:00,52.2,26.6,30.08,WSW,248,3.8,3.8,37,0.00,CLR,CLR,0.00,WeatherDisplay:10.37,2013-02-10 20:11:00,
2013-02-10 15:16:00,52.0,27.8,30.08,SSE,158,0.0,0.0,39,0.00,CLR,CLR,0.00,WeatherDisplay:10.37,2013-02-10 20:16:00,
2013-02-10 15:21:00,52.3,27.5,30.08,South,180,5.5,5.8,38,0.00,CLR,CLR,0.00,WeatherDisplay:10.37,2013-02-10 20:21:00,
2013-02-10 15:26:00,52.0,27.1,30.09,NW,315,0.0,0.0,38,0.00,CLR,CLR,0.00,WeatherDisplay:10.37,2013-02-10 20:26:00,
2013-02-10 15:31:00,51.6,24.8,30.08,SE,135,3.8,3.8,35,0.00,CLR,CLR,0.00,WeatherDisplay:10.37,2013-02-10 20:31:00,
2013-02-10 15:37:00,51.6,25.5,30.08,South,180,0.0,0.0,36,0.00,CLR,CLR,0.00,WeatherDisplay:10.37,2013-02-10 20:37:00,
2013-02-10 15:42:00,52.2,25.3,30.09,SW,225,2.9,3.5,35,0.00,CLR,CLR,0.00,WeatherDisplay:10.37,2013-02-10 20:42:00,
2013-02-10 15:47:00,52.2,24.6,30.08,SSE,158,4.0,4.0,34,0.00,CLR,CLR,0.00,WeatherDisplay:10.37,2013-02-10 20:47:00,
2013-02-10 15:52:00,52.0,25.1,30.08,SSE,158,0.0,0.0,35,0.00,CLR,CLR,0.00,WeatherDisplay:10.37,2013-02-10 20:52:00,
2013-02-10 15:57:00,51.6,24.8,30.07,SE,135,0.0,0.0,35,0.00,CLR,CLR,0.00,WeatherDisplay:10.37,2013-02-10 20:57:00,
2013-02-10 16:02:00,51.6,24.1,30.07,WSW,248,5.2,5.8,34,0.00,CLR,CLR,0.00,WeatherDisplay:10.37,2013-02-10 21:02:00,
2013-02-10 16:07:00,51.4,24.0,30.07,NE,45,0.0,0.0,34,0.00,CLR,CLR,0.00,WeatherDisplay:10.37,2013-02-10 21:07:00,
2013-02-10 16:12:00,51.4,24.7,30.07,WSW,248,0.0,0.0,35,0.00,CLR,CLR,0.00,WeatherDisplay:10.37,2013-02-10 21:12:00,
2013-02-10 16:17:00,51.1,24.3,30.05,East,90,0.0,0.0,35,0.00,CLR,CLR,0.00,WeatherDisplay:10.37,2013-02-10 21:17:00,
2013-02-10 16:22:00,50.5,23.9,30.06,East,90,0.0,0.0,35,0.00,CLR,CLR,0.00,WeatherDisplay:10.37,2013-02-10 21:22:00,
2013-02-10 16:27:00,50.5,24.5,30.06,SW,225,0.0,0.0,36,0.00,CLR,CLR,0.00,WeatherDisplay:10.37,2013-02-10 21:27:00,
2013-02-10 16:32:00,50.2,24.2,30.05,SSE,158,0.0,0.0,36,0.00,CLR,CLR,0.00,WeatherDisplay:10.37,2013-02-10 21:32:00,
2013-02-10 16:37:00,50.0,24.1,30.06,NNE,22,0.0,0.0,36,0.00,CLR,CLR,0.00,WeatherDisplay:10.37,2013-02-10 21:37:00,
2013-02-10 16:42:00,49.6,24.4,30.06,East,90,0.0,0.0,37,0.00,CLR,CLR,0.00,WeatherDisplay:10.37,2013-02-10 21:42:00,
2013-02-10 16:47:00,49.6,24.4,30.05,ENE,68,0.0,0.0,37,0.00,CLR,CLR,0.00,WeatherDisplay:10.37,2013-02-10 21:47:00,
2013-02-10 16:53:00,49.3,24.1,30.05,NE,45,0.0,0.0,37,0.00,CLR,CLR,0.00,WeatherDisplay:10.37,2013-02-10 21:53:00,
2013-02-10 16:58:00,49.3,24.7,30.05,SSW,202,0.0,0.0,38,0.00,CLR,CLR,0.00,WeatherDisplay:10.37,2013-02-10 21:58:00,
2013-02-10 17:03:00,49.1,23.3,30.04,SE,135,0.0,0.0,36,0.00,CLR,CLR,0.00,WeatherDisplay:10.37,2013-02-10 22:03:00,
2013-02-10 17:08:00,48.9,23.1,30.04,ENE,68,0.0,0.0,36,0.00,CLR,CLR,0.00,WeatherDisplay:10.37,2013-02-10 22:08:00,
2013-02-10 17:13:00,48.7,23.6,30.04,East,90,0.0,0.0,37,0.00,CLR,CLR,0.00,WeatherDisplay:10.37,2013-02-10 22:13:00,
2013-02-10 17:18:00,48.7,23.6,30.05,SSE,158,0.0,0.0,37,0.00,CLR,CLR,0.00,WeatherDisplay:10.37,2013-02-10 22:18:00,
2013-02-10 17:23:00,48.6,23.4,30.05,South,180,4.0,4.0,37,0.00,CLR,CLR,0.00,WeatherDisplay:10.37,2013-02-10 22:23:00,
2013-02-10 17:28:00,48.4,23.3,30.05,South,180,0.0,0.0,37,0.00,CLR,CLR,0.00,WeatherDisplay:10.37,2013-02-10 22:28:00,
2013-02-10 17:33:00,48.0,23.0,30.05,East,90,0.0,0.0,37,0.00,CLR,CLR,0.00,WeatherDisplay:10.37,2013-02-10 22:33:00,
2013-02-10 17:38:00,48.0,23.0,30.05,SSE,158,0.0,0.0,37,0.00,CLR,CLR,0.00,WeatherDisplay:10.37,2013-02-10 22:38:00,
2013-02-10 17:43:00,47.8,22.8,30.05,WSW,248,4.0,4.0,37,0.00,CLR,CLR,0.00,WeatherDisplay:10.37,2013-02-10 22:43:00,
2013-02-10 17:49:00,47.7,22.6,30.06,WSW,248,3.8,3.8,37,0.00,CLR,CLR,0.00,WeatherDisplay:10.37,2013-02-10 22:49:00,
2013-02-10 17:54:00,47.5,23.1,30.05,South,180,0.0,0.0,38,0.00,CLR,CLR,0.00,WeatherDisplay:10.37,2013-02-10 22:54:00,
2013-02-10 17:59:00,47.1,22.8,30.05,South,180,0.0,0.0,38,0.00,CLR,CLR,0.00,WeatherDisplay:10.37,2013-02-10 22:59:00,
2013-02-10 18:04:00,47.1,22.8,30.05,SSW,202,0.0,0.0,38,0.00,CLR,CLR,0.00,WeatherDisplay:10.37,2013-02-10 23:04:00,
2013-02-10 18:09:00,46.9,22.6,30.05,South,180,0.0,0.0,38,0.00,CLR,CLR,0.00,WeatherDisplay:10.37,2013-02-10 23:09:00,
2013-02-10 18:14:00,46.9,22.6,30.06,SSE,158,0.0,0.0,38,0.00,CLR,CLR,0.00,WeatherDisplay:10.37,2013-02-10 23:14:00,
2013-02-10 18:20:00,46.9,22.6,30.06,SW,225,0.0,0.0,38,0.00,CLR,CLR,0.00,WeatherDisplay:10.37,2013-02-10 23:20:00,
2013-02-10 18:25:00,46.9,22.6,30.06,SSW,202,0.0,0.0,38,0.00,CLR,CLR,0.00,WeatherDisplay:10.37,2013-02-10 23:25:00,
2013-02-10 18:30:00,46.9,22.6,30.06,SSW,202,0.0,0.0,38,0.00,CLR,CLR,0.00,WeatherDisplay:10.37,2013-02-10 23:30:00,
2013-02-10 18:35:00,46.9,22.6,30.06,SE,135,0.0,0.0,38,0.00,CLR,CLR,0.00,WeatherDisplay:10.37,2013-02-10 23:35:00,
2013-02-10 18:40:00,46.8,23.1,30.06,SE,135,0.0,0.0,39,0.00,CLR,CLR,0.00,WeatherDisplay:10.37,2013-02-10 23:40:00,
2013-02-10 18:46:00,46.8,23.1,30.05,ESE,112,0.0,0.0,39,0.00,CLR,CLR,0.00,WeatherDisplay:10.37,2013-02-10 23:46:00,
2013-02-10 18:51:00,46.6,22.9,30.05,ESE,112,0.0,0.0,39,0.00,CLR,CLR,0.00,WeatherDisplay:10.37,2013-02-10 23:51:00,
2013-02-10 18:56:00,46.4,23.4,30.06,ESE,112,0.0,0.0,40,0.00,CLR,CLR,0.00,WeatherDisplay:10.37,2013-02-10 23:56:00,
2013-02-10 19:01:00,46.2,22.6,30.06,SE,135,0.0,0.0,39,0.00,CLR,CLR,0.00,WeatherDisplay:10.37,2013-02-11 00:01:00,
2013-02-10 19:06:00,46.6,22.9,30.06,SE,135,0.0,0.0,39,0.00,CLR,CLR,0.00,WeatherDisplay:10.37,2013-02-11 00:06:00,
2013-02-10 19:11:00,46.4,22.8,30.06,SE,135,0.0,0.0,39,0.00,CLR,CLR,0.00,WeatherDisplay:10.37,2013-02-11 00:11:00,
2013-02-10 19:16:00,46.2,22.6,30.06,ESE,112,0.0,0.0,39,0.00,CLR,CLR,0.00,WeatherDisplay:10.37,2013-02-11 00:16:00,
2013-02-10 19:21:00,46.0,23.0,30.06,ESE,112,0.0,0.0,40,0.00,CLR,CLR,0.00,WeatherDisplay:10.37,2013-02-11 00:21:00,
2013-02-10 19:26:00,45.9,22.9,30.06,ESE,112,0.0,0.0,40,0.00,CLR,CLR,0.00,WeatherDisplay:10.37,2013-02-11 00:26:00,
2013-02-10 19:32:00,45.7,22.7,30.06,ESE,112,0.0,0.0,40,0.00,CLR,CLR,0.00,WeatherDisplay:10.37,2013-02-11 00:32:00,
2013-02-10 19:37:00,45.5,23.1,30.07,ESE,112,0.0,0.0,41,0.00,CLR,CLR,0.00,WeatherDisplay:10.37,2013-02-11 00:37:00,
2013-02-10 19:42:00,45.0,23.8,30.07,ESE,112,0.0,0.0,43,0.00,CLR,CLR,0.00,WeatherDisplay:10.37,2013-02-11 00:42:00,
2013-02-10 19:47:00,44.4,23.8,30.07,ESE,112,0.0,0.0,44,0.00,CLR,CLR,0.00,WeatherDisplay:10.37,2013-02-11 00:47:00,
2013-02-10 19:52:00,44.2,23.7,30.07,ESE,112,0.0,0.0,44,0.00,CLR,CLR,0.00,WeatherDisplay:10.37,2013-02-11 00:52:00,
2013-02-10 19:57:00,43.7,25.8,30.08,East,90,0.0,0.0,49,0.00,CLR,CLR,0.00,WeatherDisplay:10.37,2013-02-11 00:57:00,
2013-02-10 20:02:00,43.3,26.4,30.08,East,90,0.0,0.0,51,0.00,CLR,CLR,0.00,WeatherDisplay:10.37,2013-02-11 01:02:00,
2013-02-10 20:07:00,42.6,26.7,30.08,ENE,68,0.0,0.0,53,0.00,CLR,CLR,0.00,WeatherDisplay:10.37,2013-02-11 01:07:00,
2013-02-10 20:12:00,41.9,28.6,30.08,NNE,22,0.0,0.0,59,0.00,CLR,CLR,0.00,WeatherDisplay:10.37,2013-02-11 01:12:00,
2013-02-10 20:17:00,41.4,29.3,30.08,NNE,22,0.0,0.0,62,0.03,RA,RA,0.03,WeatherDisplay:10.37,2013-02-11 01:17:00,
2013-02-10 20:22:00,40.6,29.8,30.08,NNE,22,0.0,0.0,65,0.03,RA,RA,0.03,WeatherDisplay:10.37,2013-02-11 01:22:00,
2013-02-10 20:27:00,40.1,30.0,30.07,NNE,22,0.0,0.0,67,0.03,,,0.06,WeatherDisplay:10.37,2013-02-11 01:27:00,
2013-02-10 20:32:00,39.7,30.0,30.07,NNE,22,0.0,0.0,68,0.06,RA,RA,0.06,WeatherDisplay:10.37,2013-02-11 01:32:00,
2013-02-10 20:37:00,39.6,29.9,30.06,NNE,22,0.0,0.0,68,0.06,RA,RA,0.06,WeatherDisplay:10.37,2013-02-11 01:37:00,
2013-02-10 20:42:00,39.4,30.8,30.07,NNE,22,0.0,0.0,71,0.09,RA,RA,0.09,WeatherDisplay:10.37,2013-02-11 01:42:00,
2013-02-10 20:47:00,39.2,31.3,30.06,ENE,68,0.0,0.0,73,0.09,RA,RA,0.09,WeatherDisplay:10.37,2013-02-11 01:47:00,
2013-02-10 20:52:00,39.0,32.1,30.06,NE,45,0.0,0.0,76,0.09,CLR,CLR,0.09,WeatherDisplay:10.37,2013-02-11 01:52:00,
2013-02-10 20:57:00,38.8,32.9,30.07,NE,45,0.0,0.0,79,0.09,CLR,CLR,0.09,WeatherDisplay:10.37,2013-02-11 01:57:00,
2013-02-10 21:02:00,38.8,33.2,30.07,NE,45,0.0,0.0,80,0.09,CLR,CLR,0.09,WeatherDisplay:10.37,2013-02-11 02:02:00,
2013-02-10 21:07:00,38.8,33.5,30.06,NE,45,0.0,0.0,81,0.09,CLR,CLR,0.09,WeatherDisplay:10.37,2013-02-11 02:07:00,
2013-02-10 21:12:00,38.7,33.0,30.06,NE,45,0.0,0.0,80,0.09,CLR,CLR,0.09,WeatherDisplay:10.37,2013-02-11 02:12:00,
2013-02-10 21:18:00,38.5,32.8,30.05,NE,45,0.0,0.0,80,0.06,CLR,CLR,0.09,WeatherDisplay:10.37,2013-02-11 02:18:00,
2013-02-10 21:23:00,38.3,32.7,30.05,NE,45,0.0,0.0,80,0.06,CLR,CLR,0.09,WeatherDisplay:10.37,2013-02-11 02:23:00,
2013-02-10 21:28:00,38.5,33.2,30.04,NE,45,0.0,0.0,81,0.03,CLR,CLR,0.09,WeatherDisplay:10.37,2013-02-11 02:28:00,
2013-02-10 21:33:00,38.5,33.5,30.04,NE,45,0.0,0.0,82,0.03,CLR,CLR,0.09,WeatherDisplay:10.37,2013-02-11 02:33:00,
2013-02-10 21:38:00,38.8,33.8,30.04,South,180,0.0,0.0,82,0.00,CLR,CLR,0.09,WeatherDisplay:10.37,2013-02-11 02:38:00,
2013-02-10 21:43:00,38.8,34.1,30.04,SW,225,0.0,0.0,83,0.00,CLR,CLR,0.09,WeatherDisplay:10.37,2013-02-11 02:43:00,
2013-02-10 21:48:00,38.8,34.4,30.04,SSE,158,0.0,0.0,84,0.00,CLR,CLR,0.09,WeatherDisplay:10.37,2013-02-11 02:48:00,
2013-02-10 21:53:00,38.8,34.4,30.04,West,270,0.0,0.0,84,0.00,CLR,CLR,0.12,WeatherDisplay:10.37,2013-02-11 02:53:00,
2013-02-10 21:58:00,38.8,34.7,30.03,WNW,292,0.0,0.0,85,0.03,RA,RA,0.12,WeatherDisplay:10.37,2013-02-11 02:58:00,
2013-02-10 22:04:00,38.8,34.7,30.03,WNW,292,0.0,0.0,85,0.03,,,0.12,WeatherDisplay:10.37,2013-02-11 03:04:00,
2013-02-10 22:09:00,38.8,34.7,30.02,WNW,292,0.0,0.0,85,0.03,CLR,CLR,0.12,WeatherDisplay:10.37,2013-02-11 03:09:00,
2013-02-10 22:14:00,38.8,34.7,30.02,WNW,292,0.0,0.0,85,0.03,CLR,CLR,0.12,WeatherDisplay:10.37,2013-02-11 03:14:00,
2013-02-10 22:19:00,38.7,34.8,30.02,NW,315,0.0,0.0,86,0.03,CLR,CLR,0.12,WeatherDisplay:10.37,2013-02-11 03:19:00,
2013-02-10 22:25:00,38.7,34.8,30.02,NW,315,0.0,0.0,86,0.03,CLR,CLR,0.12,WeatherDisplay:10.37,2013-02-11 03:25:00,
2013-02-10 22:30:00,38.7,34.8,30.02,NW,315,0.0,0.0,86,0.03,CLR,CLR,0.12,WeatherDisplay:10.37,2013-02-11 03:30:00,
2013-02-10 22:35:00,38.5,34.9,30.02,NNW,338,0.0,0.0,87,0.03,CLR,CLR,0.12,WeatherDisplay:10.37,2013-02-11 03:35:00,
2013-02-10 22:40:00,38.5,34.9,30.02,North,0,0.0,0.0,87,0.03,CLR,CLR,0.12,WeatherDisplay:10.37,2013-02-11 03:40:00,
2013-02-10 22:45:00,38.5,34.9,30.01,North,0,0.0,0.0,87,0.03,CLR,CLR,0.12,WeatherDisplay:10.37,2013-02-11 03:45:00,
2013-02-10 22:50:00,38.3,34.8,30.00,North,0,0.0,0.0,87,0.03,CLR,CLR,0.12,WeatherDisplay:10.37,2013-02-11 03:50:00,
2013-02-10 22:55:00,38.3,34.8,30.00,North,0,0.0,0.0,87,0.00,CLR,CLR,0.12,WeatherDisplay:10.37,2013-02-11 03:55:00,
2013-02-10 23:01:00,38.3,35.1,30.00,North,0,0.0,0.0,88,0.00,CLR,CLR,0.12,WeatherDisplay:10.37,2013-02-11 04:01:00,
2013-02-10 23:06:00,38.3,34.8,30.00,North,0,0.0,0.0,87,0.00,CLR,CLR,0.12,WeatherDisplay:10.37,2013-02-11 04:06:00,
2013-02-10 23:11:00,38.3,34.8,30.00,North,0,0.0,0.0,87,0.00,CLR,CLR,0.12,WeatherDisplay:10.37,2013-02-11 04:11:00,
2013-02-10 23:16:00,38.3,34.8,30.00,North,0,0.0,0.0,87,0.00,CLR,CLR,0.12,WeatherDisplay:10.37,2013-02-11 04:16:00,
2013-02-10 23:21:00,38.5,34.9,30.00,WSW,248,0.0,0.0,87,0.00,CLR,CLR,0.12,WeatherDisplay:10.37,2013-02-11 04:21:00,
2013-02-10 23:26:00,38.5,34.9,29.99,West,270,0.0,0.0,87,0.00,CLR,CLR,0.12,WeatherDisplay:10.37,2013-02-11 04:26:00,
2013-02-10 23:31:00,38.5,34.9,29.99,West,270,0.0,0.0,87,0.00,CLR,CLR,0.12,WeatherDisplay:10.37,2013-02-11 04:31:00,
2013-02-10 23:37:00,38.3,34.8,29.98,West,270,0.0,0.0,87,0.00,CLR,CLR,0.12,WeatherDisplay:10.37,2013-02-11 04:37:00,
2013-02-10 23:42:00,38.5,34.9,29.98,West,270,0.0,0.0,87,0.00,CLR,CLR,0.12,WeatherDisplay:10.37,2013-02-11 04:42:00,
2013-02-10 23:47:00,38.5,34.9,29.97,SW,225,0.0,0.0,87,0.00,CLR,CLR,0.12,WeatherDisplay:10.37,2013-02-11 04:47:00,
2013-02-10 23:52:00,38.5,34.9,29.97,South,180,0.0,0.0,87,0.00,CLR,CLR,0.12,WeatherDisplay:10.37,2013-02-11 04:52:00,
2013-02-10 23:57:00,38.5,35.2,29.97,SSW,202,0.0,0.0,88,0.00,CLR,CLR,0.12,WeatherDisplay:10.37,2013-02-11 04:57:00,